sensor_id;sensor_type;location;lat;lon;timestamp;pressure;altitude;pressure_sealevel;temperature
64947;BMP280;51469;52.150;4.682;2023-04-24T00:01:13;100097.22;;;15.36
64947;BMP280;51469;52.150;4.682;2023-04-24T00:03:38;100098.59;;;15.28
64947;BMP280;51469;52.150;4.682;2023-04-24T00:06:04;100095.28;;;15.17
64947;BMP280;51469;52.150;4.682;2023-04-24T00:08:32;100108.63;;;15.38
64947;BMP280;51469;52.150;4.682;2023-04-24T00:10:57;100105.31;;;15.27
64947;BMP280;51469;52.150;4.682;2023-04-24T00:13:22;100110.97;;;15.20
64947;BMP280;51469;52.150;4.682;2023-04-24T00:15:48;100114.75;;;15.30
64947;BMP280;51469;52.150;4.682;2023-04-24T00:18:13;100114.78;;;15.26
64947;BMP280;51469;52.150;4.682;2023-04-24T00:20:39;100119.97;;;15.44
64947;BMP280;51469;52.150;4.682;2023-04-24T00:23:04;100111.81;;;15.56
64947;BMP280;51469;52.150;4.682;2023-04-24T00:25:30;100114.59;;;15.37
64947;BMP280;51469;52.150;4.682;2023-04-24T00:27:56;100116.72;;;15.49
64947;BMP280;51469;52.150;4.682;2023-04-24T00:30:21;100115.09;;;15.51
64947;BMP280;51469;52.150;4.682;2023-04-24T00:32:46;100116.94;;;15.38
64947;BMP280;51469;52.150;4.682;2023-04-24T00:35:12;100105.75;;;15.45
64947;BMP280;51469;52.150;4.682;2023-04-24T00:37:37;100113.66;;;15.43
64947;BMP280;51469;52.150;4.682;2023-04-24T00:40:03;100111.63;;;15.27
64947;BMP280;51469;52.150;4.682;2023-04-24T00:42:28;100110.41;;;15.09
64947;BMP280;51469;52.150;4.682;2023-04-24T00:44:56;100121.06;;;15.30
64947;BMP280;51469;52.150;4.682;2023-04-24T00:47:21;100113.97;;;15.29
64947;BMP280;51469;52.150;4.682;2023-04-24T00:49:47;100117.81;;;15.35
64947;BMP280;51469;52.150;4.682;2023-04-24T00:52:12;100112.78;;;15.30
64947;BMP280;51469;52.150;4.682;2023-04-24T00:54:45;100106.63;;;15.23
64947;BMP280;51469;52.150;4.682;2023-04-24T00:57:13;100114.97;;;15.19
64947;BMP280;51469;52.150;4.682;2023-04-24T00:59:40;100118.16;;;15.18
64947;BMP280;51469;52.150;4.682;2023-04-24T01:02:07;100118.72;;;15.29
64947;BMP280;51469;52.150;4.682;2023-04-24T01:04:34;100126.50;;;15.34
64947;BMP280;51469;52.150;4.682;2023-04-24T01:06:59;100119.91;;;15.27
64947;BMP280;51469;52.150;4.682;2023-04-24T01:09:25;100123.69;;;15.18
64947;BMP280;51469;52.150;4.682;2023-04-24T01:11:52;100117.25;;;15.24
64947;BMP280;51469;52.150;4.682;2023-04-24T01:14:17;100125.03;;;15.29
64947;BMP280;51469;52.150;4.682;2023-04-24T01:16:43;100116.31;;;15.31
64947;BMP280;51469;52.150;4.682;2023-04-24T01:19:10;100129.56;;;15.39
64947;BMP280;51469;52.150;4.682;2023-04-24T01:21:37;100125.94;;;15.42
64947;BMP280;51469;52.150;4.682;2023-04-24T01:24:06;100126.28;;;15.44
64947;BMP280;51469;52.150;4.682;2023-04-24T01:26:32;100131.81;;;15.44
64947;BMP280;51469;52.150;4.682;2023-04-24T01:28:58;100131.13;;;15.40
64947;BMP280;51469;52.150;4.682;2023-04-24T01:31:23;100127.06;;;15.25
64947;BMP280;51469;52.150;4.682;2023-04-24T01:33:49;100126.94;;;15.32
64947;BMP280;51469;52.150;4.682;2023-04-24T01:36:16;100130.88;;;15.31
64947;BMP280;51469;52.150;4.682;2023-04-24T01:38:41;100108.66;;;15.19
64947;BMP280;51469;52.150;4.682;2023-04-24T01:41:06;100136.66;;;15.40
64947;BMP280;51469;52.150;4.682;2023-04-24T01:43:32;100136.28;;;15.38
64947;BMP280;51469;52.150;4.682;2023-04-24T01:45:57;100131.63;;;15.35
64947;BMP280;51469;52.150;4.682;2023-04-24T01:48:23;100128.69;;;15.42
64947;BMP280;51469;52.150;4.682;2023-04-24T01:50:48;100134.16;;;15.46
64947;BMP280;51469;52.150;4.682;2023-04-24T01:53:14;100123.72;;;15.53
64947;BMP280;51469;52.150;4.682;2023-04-24T01:55:40;100126.13;;;15.51
64947;BMP280;51469;52.150;4.682;2023-04-24T01:58:06;100123.88;;;15.46
64947;BMP280;51469;52.150;4.682;2023-04-24T02:00:32;100138.03;;;15.48
64947;BMP280;51469;52.150;4.682;2023-04-24T02:02:57;100138.03;;;15.48
64947;BMP280;51469;52.150;4.682;2023-04-24T02:05:22;100136.81;;;15.49
64947;BMP280;51469;52.150;4.682;2023-04-24T02:07:48;100134.94;;;15.46
64947;BMP280;51469;52.150;4.682;2023-04-24T02:10:13;100114.16;;;15.38
64947;BMP280;51469;52.150;4.682;2023-04-24T02:12:38;100123.16;;;15.42
64947;BMP280;51469;52.150;4.682;2023-04-24T02:15:04;100118.41;;;15.43
64947;BMP280;51469;52.150;4.682;2023-04-24T02:17:30;100121.44;;;15.48
64947;BMP280;51469;52.150;4.682;2023-04-24T02:19:55;100128.34;;;15.40
64947;BMP280;51469;52.150;4.682;2023-04-24T02:22:21;100125.59;;;15.40
64947;BMP280;51469;52.150;4.682;2023-04-24T02:24:46;100129.91;;;15.41
64947;BMP280;51469;52.150;4.682;2023-04-24T02:27:12;100127.16;;;15.41
64947;BMP280;51469;52.150;4.682;2023-04-24T02:29:37;100127.63;;;15.36
64947;BMP280;51469;52.150;4.682;2023-04-24T02:32:03;100118.06;;;15.21
64947;BMP280;51469;52.150;4.682;2023-04-24T02:34:28;100129.81;;;15.25
64947;BMP280;51469;52.150;4.682;2023-04-24T02:36:53;100125.84;;;15.26
64947;BMP280;51469;52.150;4.682;2023-04-24T02:39:19;100125.03;;;15.29
64947;BMP280;51469;52.150;4.682;2023-04-24T02:41:44;100125.81;;;15.30
64947;BMP280;51469;52.150;4.682;2023-04-24T02:44:10;100113.25;;;15.25
64947;BMP280;51469;52.150;4.682;2023-04-24T02:46:35;100115.53;;;15.30
64947;BMP280;51469;52.150;4.682;2023-04-24T02:49:01;100108.78;;;15.31
64947;BMP280;51469;52.150;4.682;2023-04-24T02:51:26;100110.00;;;15.30
64947;BMP280;51469;52.150;4.682;2023-04-24T02:53:52;100110.00;;;15.30
64947;BMP280;51469;52.150;4.682;2023-04-24T02:56:17;100110.00;;;15.30
64947;BMP280;51469;52.150;4.682;2023-04-24T02:58:42;100112.31;;;15.32
64947;BMP280;51469;52.150;4.682;2023-04-24T03:01:08;100113.19;;;15.29
64947;BMP280;51469;52.150;4.682;2023-04-24T03:03:35;100115.16;;;15.28
64947;BMP280;51469;52.150;4.682;2023-04-24T03:06:01;100107.66;;;15.29
64947;BMP280;51469;52.150;4.682;2023-04-24T03:08:26;100116.38;;;15.27
64947;BMP280;51469;52.150;4.682;2023-04-24T03:10:52;100125.25;;;15.19
64947;BMP280;51469;52.150;4.682;2023-04-24T03:13:17;100125.00;;;14.90
64947;BMP280;51469;52.150;4.682;2023-04-24T03:15:45;100121.16;;;15.03
64947;BMP280;51469;52.150;4.682;2023-04-24T03:18:11;100130.81;;;15.15
64947;BMP280;51469;52.150;4.682;2023-04-24T03:20:37;100113.41;;;15.18
64947;BMP280;51469;52.150;4.682;2023-04-24T03:23:02;100116.16;;;15.18
64947;BMP280;51469;52.150;4.682;2023-04-24T03:25:28;100121.31;;;15.16
64947;BMP280;51469;52.150;4.682;2023-04-24T03:27:53;100122.03;;;15.20
64947;BMP280;51469;52.150;4.682;2023-04-24T03:30:20;100123.59;;;15.21
64947;BMP280;51469;52.150;4.682;2023-04-24T03:32:45;100125.16;;;15.22
64947;BMP280;51469;52.150;4.682;2023-04-24T03:35:10;100115.28;;;15.21
64947;BMP280;51469;52.150;4.682;2023-04-24T03:37:36;100115.78;;;15.16
64947;BMP280;51469;52.150;4.682;2023-04-24T03:40:02;100115.09;;;15.12
64947;BMP280;51469;52.150;4.682;2023-04-24T03:42:27;100119.09;;;15.11
64947;BMP280;51469;52.150;4.682;2023-04-24T03:44:52;100117.50;;;15.10
64947;BMP280;51469;52.150;4.682;2023-04-24T03:47:18;100125.28;;;15.15
64947;BMP280;51469;52.150;4.682;2023-04-24T03:49:43;100123.75;;;15.14
64947;BMP280;51469;52.150;4.682;2023-04-24T03:52:08;100123.81;;;15.11
64947;BMP280;51469;52.150;4.682;2023-04-24T03:54:34;100133.22;;;15.13
64947;BMP280;51469;52.150;4.682;2023-04-24T03:56:59;100137.22;;;15.12
64947;BMP280;51469;52.150;4.682;2023-04-24T03:59:26;100131.69;;;15.12
64947;BMP280;51469;52.150;4.682;2023-04-24T04:01:52;100122.16;;;14.93
64947;BMP280;51469;52.150;4.682;2023-04-24T04:04:17;100140.59;;;15.00
64947;BMP280;51469;52.150;4.682;2023-04-24T04:06:43;100140.59;;;15.00
64947;BMP280;51469;52.150;4.682;2023-04-24T04:09:09;100156.28;;;15.03
64947;BMP280;51469;52.150;4.682;2023-04-24T04:11:34;100149.25;;;15.02
64947;BMP280;51469;52.150;4.682;2023-04-24T04:14:00;100153.91;;;15.05
64947;BMP280;51469;52.150;4.682;2023-04-24T04:16:25;100149.25;;;15.02
64947;BMP280;51469;52.150;4.682;2023-04-24T04:18:51;100156.28;;;15.03
64947;BMP280;51469;52.150;4.682;2023-04-24T04:21:16;100165.81;;;15.02
64947;BMP280;51469;52.150;4.682;2023-04-24T04:23:41;100169.78;;;15.01
64947;BMP280;51469;52.150;4.682;2023-04-24T04:26:07;100174.81;;;15.06
64947;BMP280;51469;52.150;4.682;2023-04-24T04:28:33;100169.63;;;15.08
64947;BMP280;51469;52.150;4.682;2023-04-24T04:30:58;100181.53;;;15.05
64947;BMP280;51469;52.150;4.682;2023-04-24T04:33:24;100188.63;;;15.06
64947;BMP280;51469;52.150;4.682;2023-04-24T04:35:50;100191.16;;;14.97
64947;BMP280;51469;52.150;4.682;2023-04-24T04:38:18;100183.22;;;14.99
64947;BMP280;51469;52.150;4.682;2023-04-24T04:40:44;100188.81;;;14.96
64947;BMP280;51469;52.150;4.682;2023-04-24T04:43:10;100194.38;;;14.92
64947;BMP280;51469;52.150;4.682;2023-04-24T04:45:36;100197.53;;;14.94
64947;BMP280;51469;52.150;4.682;2023-04-24T04:48:02;100213.25;;;14.97
64947;BMP280;51469;52.150;4.682;2023-04-24T04:50:28;100209.44;;;14.91
64947;BMP280;51469;52.150;4.682;2023-04-24T04:52:54;100215.75;;;14.88
64947;BMP280;51469;52.150;4.682;2023-04-24T04:55:19;100206.28;;;14.89
64947;BMP280;51469;52.150;4.682;2023-04-24T04:57:45;100222.47;;;14.87
64947;BMP280;51469;52.150;4.682;2023-04-24T05:00:11;100217.44;;;14.82
64947;BMP280;51469;52.150;4.682;2023-04-24T05:02:40;100208.19;;;14.69
64947;BMP280;51469;52.150;4.682;2023-04-24T05:05:06;100227.78;;;14.78
64947;BMP280;51469;52.150;4.682;2023-04-24T05:07:32;100238.84;;;14.78
64947;BMP280;51469;52.150;4.682;2023-04-24T05:09:57;100252.53;;;14.81
64947;BMP280;51469;52.150;4.682;2023-04-24T05:12:23;100255.28;;;14.85
64947;BMP280;51469;52.150;4.682;2023-04-24T05:14:48;100258.47;;;14.80
64947;BMP280;51469;52.150;4.682;2023-04-24T05:17:13;100268.00;;;14.79
64947;BMP280;51469;52.150;4.682;2023-04-24T05:19:39;100282.41;;;14.63
64947;BMP280;51469;52.150;4.682;2023-04-24T05:22:04;100286.41;;;14.63
64947;BMP280;51469;52.150;4.682;2023-04-24T05:24:35;100303.22;;;14.45
64947;BMP280;51469;52.150;4.682;2023-04-24T05:27:00;100303.53;;;14.50
64947;BMP280;51469;52.150;4.682;2023-04-24T05:29:27;100321.28;;;14.49
64947;BMP280;51469;52.150;4.682;2023-04-24T05:31:52;100319.63;;;14.52
64947;BMP280;51469;52.150;4.682;2023-04-24T05:34:18;100328.31;;;14.54
64947;BMP280;51469;52.150;4.682;2023-04-24T05:36:43;100336.44;;;14.34
64947;BMP280;51469;52.150;4.682;2023-04-24T05:39:09;100344.22;;;14.43
64947;BMP280;51469;52.150;4.682;2023-04-24T05:41:34;100350.84;;;14.49
64947;BMP280;51469;52.150;4.682;2023-04-24T05:44:00;100351.34;;;14.40
64947;BMP280;51469;52.150;4.682;2023-04-24T05:46:25;100359.38;;;14.31
64947;BMP280;51469;52.150;4.682;2023-04-24T05:48:50;100383.75;;;14.36
64947;BMP280;51469;52.150;4.682;2023-04-24T05:51:16;100389.03;;;14.54
64947;BMP280;51469;52.150;4.682;2023-04-24T05:53:41;100389.22;;;14.40
64947;BMP280;51469;52.150;4.682;2023-04-24T05:56:06;100396.47;;;14.27
64947;BMP280;51469;52.150;4.682;2023-04-24T05:58:32;100406.69;;;14.30
64947;BMP280;51469;52.150;4.682;2023-04-24T06:00:57;100419.19;;;14.38
64947;BMP280;51469;52.150;4.682;2023-04-24T06:03:24;100415.66;;;14.34
64947;BMP280;51469;52.150;4.682;2023-04-24T06:05:50;100418.16;;;14.25
64947;BMP280;51469;52.150;4.682;2023-04-24T06:08:16;100429.97;;;14.25
64947;BMP280;51469;52.150;4.682;2023-04-24T06:10:41;100431.97;;;14.25
64947;BMP280;51469;52.150;4.682;2023-04-24T06:13:07;100429.66;;;14.20
64947;BMP280;51469;52.150;4.682;2023-04-24T06:15:33;100450.88;;;14.23
64947;BMP280;51469;52.150;4.682;2023-04-24T06:17:58;100452.78;;;14.29
64947;BMP280;51469;52.150;4.682;2023-04-24T06:20:24;100460.22;;;14.36
64947;BMP280;51469;52.150;4.682;2023-04-24T06:22:50;100449.66;;;14.27
64947;BMP280;51469;52.150;4.682;2023-04-24T06:25:15;100476.34;;;14.37
64947;BMP280;51469;52.150;4.682;2023-04-24T06:27:41;100454.78;;;14.25
64947;BMP280;51469;52.150;4.682;2023-04-24T06:30:07;100484.09;;;14.16
64947;BMP280;51469;52.150;4.682;2023-04-24T06:32:32;100488.09;;;14.08
64947;BMP280;51469;52.150;4.682;2023-04-24T06:34:57;100490.34;;;14.20
64947;BMP280;51469;52.150;4.682;2023-04-24T06:37:23;100493.09;;;14.20
64947;BMP280;51469;52.150;4.682;2023-04-24T06:39:49;100494.41;;;14.08
64947;BMP280;51469;52.150;4.682;2023-04-24T06:42:14;100511.66;;;14.16
64947;BMP280;51469;52.150;4.682;2023-04-24T06:44:40;100523.41;;;14.27
64947;BMP280;51469;52.150;4.682;2023-04-24T06:47:12;100530.41;;;14.35
64947;BMP280;51469;52.150;4.682;2023-04-24T06:49:39;100520.31;;;14.18
64947;BMP280;51469;52.150;4.682;2023-04-24T06:52:05;100529.25;;;14.29
64947;BMP280;51469;52.150;4.682;2023-04-24T06:54:31;100535.97;;;14.28
64947;BMP280;51469;52.150;4.682;2023-04-24T06:56:57;100553.22;;;14.39
64947;BMP280;51469;52.150;4.682;2023-04-24T06:59:24;100544.63;;;14.30
64947;BMP280;51469;52.150;4.682;2023-04-24T07:01:49;100553.84;;;14.57
64947;BMP280;51469;52.150;4.682;2023-04-24T07:04:16;100559.66;;;14.66
64947;BMP280;51469;52.150;4.682;2023-04-24T07:06:42;100565.13;;;14.73
64947;BMP280;51469;52.150;4.682;2023-04-24T07:09:08;100567.16;;;14.65
64947;BMP280;51469;52.150;4.682;2023-04-24T07:11:34;100574.31;;;14.59
64947;BMP280;51469;52.150;4.682;2023-04-24T07:14:01;100565.81;;;14.40
64947;BMP280;51469;52.150;4.682;2023-04-24T07:16:27;100575.22;;;14.46
64947;BMP280;51469;52.150;4.682;2023-04-24T07:18:53;100592.50;;;14.53
64947;BMP280;51469;52.150;4.682;2023-04-24T07:21:18;100597.31;;;14.46
64947;BMP280;51469;52.150;4.682;2023-04-24T07:23:43;100586.66;;;14.52
64947;BMP280;51469;52.150;4.682;2023-04-24T07:26:09;100603.53;;;14.57
64947;BMP280;51469;52.150;4.682;2023-04-24T07:28:34;100602.69;;;14.60
64947;BMP280;51469;52.150;4.682;2023-04-24T07:31:00;100618.03;;;14.68
64947;BMP280;51469;52.150;4.682;2023-04-24T07:33:26;100620.78;;;14.68
64947;BMP280;51469;52.150;4.682;2023-04-24T07:35:51;100620.00;;;14.68
64947;BMP280;51469;52.150;4.682;2023-04-24T07:38:17;100637.06;;;14.55
64947;BMP280;51469;52.150;4.682;2023-04-24T07:40:46;100640.16;;;14.61
64947;BMP280;51469;52.150;4.682;2023-04-24T07:43:12;100634.91;;;14.73
64947;BMP280;51469;52.150;4.682;2023-04-24T07:45:37;100657.00;;;14.73
64947;BMP280;51469;52.150;4.682;2023-04-24T07:48:03;100651.50;;;14.70
64947;BMP280;51469;52.150;4.682;2023-04-24T07:50:28;100654.69;;;14.68
64947;BMP280;51469;52.150;4.682;2023-04-24T07:52:54;100668.06;;;14.73
64947;BMP280;51469;52.150;4.682;2023-04-24T07:55:19;100659.34;;;14.75
64947;BMP280;51469;52.150;4.682;2023-04-24T07:57:45;100666.00;;;14.81
64947;BMP280;51469;52.150;4.682;2023-04-24T08:00:11;100668.06;;;14.70
64947;BMP280;51469;52.150;4.682;2023-04-24T08:02:36;100678.63;;;14.82
64947;BMP280;51469;52.150;4.682;2023-04-24T08:05:02;100670.72;;;14.84
64947;BMP280;51469;52.150;4.682;2023-04-24T08:07:28;100677.38;;;14.90
64947;BMP280;51469;52.150;4.682;2023-04-24T08:09:54;100676.53;;;14.93
64947;BMP280;51469;52.150;4.682;2023-04-24T08:12:19;100688.38;;;14.93
64947;BMP280;51469;52.150;4.682;2023-04-24T08:14:45;100702.22;;;14.90
64947;BMP280;51469;52.150;4.682;2023-04-24T08:17:10;100699.91;;;14.81
64947;BMP280;51469;52.150;4.682;2023-04-24T08:19:35;100705.84;;;14.80
64947;BMP280;51469;52.150;4.682;2023-04-24T08:22:01;100713.03;;;14.70
64947;BMP280;51469;52.150;4.682;2023-04-24T08:24:26;100717.88;;;14.59
64947;BMP280;51469;52.150;4.682;2023-04-24T08:26:52;100702.03;;;14.67
64947;BMP280;51469;52.150;4.682;2023-04-24T08:29:19;100719.75;;;14.73
64947;BMP280;51469;52.150;4.682;2023-04-24T08:31:44;100725.56;;;14.82
64947;BMP280;51469;52.150;4.682;2023-04-24T08:34:10;100727.16;;;14.83
64947;BMP280;51469;52.150;4.682;2023-04-24T08:36:36;100730.28;;;14.85
64947;BMP280;51469;52.150;4.682;2023-04-24T08:39:02;100737.38;;;14.86
64947;BMP280;51469;52.150;4.682;2023-04-24T08:41:27;100744.41;;;14.94
64947;BMP280;51469;52.150;4.682;2023-04-24T08:43:53;100750.66;;;14.98
64947;BMP280;51469;52.150;4.682;2023-04-24T08:46:20;100765.72;;;14.97
64947;BMP280;51469;52.150;4.682;2023-04-24T08:48:47;100765.63;;;15.04
64947;BMP280;51469;52.150;4.682;2023-04-24T08:51:13;100757.03;;;14.95
64947;BMP280;51469;52.150;4.682;2023-04-24T08:53:39;100784.75;;;14.85
64947;BMP280;51469;52.150;4.682;2023-04-24T08:56:05;100766.69;;;14.73
64947;BMP280;51469;52.150;4.682;2023-04-24T08:58:31;100768.31;;;14.67
64947;BMP280;51469;52.150;4.682;2023-04-24T09:00:58;100782.34;;;14.86
64947;BMP280;51469;52.150;4.682;2023-04-24T09:03:24;100780.06;;;14.74
64947;BMP280;51469;52.150;4.682;2023-04-24T09:05:52;100772.91;;;14.84
64947;BMP280;51469;52.150;4.682;2023-04-24T09:08:19;100779.88;;;14.99
64947;BMP280;51469;52.150;4.682;2023-04-24T09:10:44;100781.66;;;15.19
64947;BMP280;51469;52.150;4.682;2023-04-24T09:13:10;100786.72;;;15.28
64947;BMP280;51469;52.150;4.682;2023-04-24T09:15:39;100782.41;;;15.27
64947;BMP280;51469;52.150;4.682;2023-04-24T09:18:06;100793.94;;;15.19
64947;BMP280;51469;52.150;4.682;2023-04-24T09:20:32;100787.63;;;15.14
64947;BMP280;51469;52.150;4.682;2023-04-24T09:22:57;100809.72;;;15.18
64947;BMP280;51469;52.150;4.682;2023-04-24T09:25:31;100797.97;;;15.07
64947;BMP280;51469;52.150;4.682;2023-04-24T09:28:00;100813.69;;;15.17
64947;BMP280;51469;52.150;4.682;2023-04-24T09:30:27;100820.38;;;15.16
64947;BMP280;51469;52.150;4.682;2023-04-24T09:33:13;100833.41;;;15.19
64947;BMP280;51469;52.150;4.682;2023-04-24T09:35:51;100828.75;;;15.09
64947;BMP280;51469;52.150;4.682;2023-04-24T09:38:17;100817.69;;;15.09
64947;BMP280;51469;52.150;4.682;2023-04-24T09:40:42;100813.69;;;15.17
64947;BMP280;51469;52.150;4.682;2023-04-24T09:43:11;100822.16;;;15.40
64947;BMP280;51469;52.150;4.682;2023-04-24T09:45:38;100821.78;;;15.75
64947;BMP280;51469;52.150;4.682;2023-04-24T09:48:04;100824.06;;;15.84
64947;BMP280;51469;52.150;4.682;2023-04-24T09:50:32;100832.59;;;15.96
64947;BMP280;51469;52.150;4.682;2023-04-24T09:53:06;100847.72;;;15.88
64947;BMP280;51469;52.150;4.682;2023-04-24T09:55:39;100853.59;;;15.53
64947;BMP280;51469;52.150;4.682;2023-04-24T09:58:07;100869.97;;;15.74
64947;BMP280;51469;52.150;4.682;2023-04-24T10:00:33;100856.00;;;15.51
64947;BMP280;51469;52.150;4.682;2023-04-24T10:03:05;100846.59;;;15.45
64947;BMP280;51469;52.150;4.682;2023-04-24T10:05:37;100859.81;;;15.64
64947;BMP280;51469;52.150;4.682;2023-04-24T10:08:10;100858.09;;;15.77
64947;BMP280;51469;52.150;4.682;2023-04-24T10:10:39;100864.19;;;15.99
64947;BMP280;51469;52.150;4.682;2023-04-24T10:13:05;100859.56;;;15.89
64947;BMP280;51469;52.150;4.682;2023-04-24T10:15:32;100867.66;;;15.73
64947;BMP280;51469;52.150;4.682;2023-04-24T10:17:58;100856.97;;;16.08
64947;BMP280;51469;52.150;4.682;2023-04-24T10:20:26;100869.59;;;16.09
64947;BMP280;51469;52.150;4.682;2023-04-24T10:22:54;100876.88;;;16.56
64947;BMP280;51469;52.150;4.682;2023-04-24T10:25:21;100866.91;;;16.89
64947;BMP280;51469;52.150;4.682;2023-04-24T10:27:48;100877.50;;;16.71
64947;BMP280;51469;52.150;4.682;2023-04-24T10:30:14;100876.47;;;16.84
64947;BMP280;51469;52.150;4.682;2023-04-24T10:32:40;100878.31;;;17.17
64947;BMP280;51469;52.150;4.682;2023-04-24T10:35:13;100881.09;;;17.40
64947;BMP280;51469;52.150;4.682;2023-04-24T10:37:45;100865.06;;;17.05
64947;BMP280;51469;52.150;4.682;2023-04-24T10:40:12;100882.41;;;17.32
64947;BMP280;51469;52.150;4.682;2023-04-24T10:42:41;100887.47;;;17.37
64947;BMP280;51469;52.150;4.682;2023-04-24T10:45:27;100880.25;;;17.43
64947;BMP280;51469;52.150;4.682;2023-04-24T10:47:59;100889.25;;;17.70
64947;BMP280;51469;52.150;4.682;2023-04-24T10:50:27;100891.31;;;17.66
64947;BMP280;51469;52.150;4.682;2023-04-24T10:53:05;100921.97;;;17.59
64947;BMP280;51469;52.150;4.682;2023-04-24T10:58:07;100927.94;;;17.58
64947;BMP280;51469;52.150;4.682;2023-04-24T11:00:36;100930.41;;;17.52
64947;BMP280;51469;52.150;4.682;2023-04-24T11:03:04;100928.38;;;17.56
64947;BMP280;51469;52.150;4.682;2023-04-24T11:06:06;100942.41;;;17.68
64947;BMP280;51469;52.150;4.682;2023-04-24T11:08:36;100936.63;;;17.37
64947;BMP280;51469;52.150;4.682;2023-04-24T11:11:16;100954.53;;;17.06
64947;BMP280;51469;52.150;4.682;2023-04-24T11:16:39;100943.97;;;17.23
64947;BMP280;51469;52.150;4.682;2023-04-24T11:21:39;100956.69;;;17.21
64947;BMP280;51469;52.150;4.682;2023-04-24T11:24:23;100950.47;;;16.87
64947;BMP280;51469;52.150;4.682;2023-04-24T11:27:12;100960.34;;;16.88
64947;BMP280;51469;52.150;4.682;2023-04-24T11:37:41;100956.88;;;17.07
64947;BMP280;51469;52.150;4.682;2023-04-24T11:40:10;100967.44;;;17.42
64947;BMP280;51469;52.150;4.682;2023-04-24T11:42:41;100966.22;;;17.20
64947;BMP280;51469;52.150;4.682;2023-04-24T11:45:10;100974.28;;;17.11
64947;BMP280;51469;52.150;4.682;2023-04-24T11:47:36;100979.94;;;17.53
64947;BMP280;51469;52.150;4.682;2023-04-24T11:50:02;100953.44;;;17.72
64947;BMP280;51469;52.150;4.682;2023-04-24T11:52:29;100962.63;;;17.88
64947;BMP280;51469;52.150;4.682;2023-04-24T11:54:55;100976.22;;;17.37
64947;BMP280;51469;52.150;4.682;2023-04-24T11:57:21;100970.44;;;17.51
64947;BMP280;51469;52.150;4.682;2023-04-24T11:59:47;100977.81;;;17.38
64947;BMP280;51469;52.150;4.682;2023-04-24T12:02:23;100998.53;;;17.30
64947;BMP280;51469;52.150;4.682;2023-04-24T12:04:49;100985.63;;;17.20
64947;BMP280;51469;52.150;4.682;2023-04-24T12:07:15;100991.97;;;17.17
64947;BMP280;51469;52.150;4.682;2023-04-24T12:09:46;100987.97;;;17.48
64947;BMP280;51469;52.150;4.682;2023-04-24T12:12:13;101001.41;;;17.50
64947;BMP280;51469;52.150;4.682;2023-04-24T12:14:58;100991.31;;;17.10
64947;BMP280;51469;52.150;4.682;2023-04-24T12:17:32;101014.56;;;16.89
64947;BMP280;51469;52.150;4.682;2023-04-24T12:20:05;101016.00;;;16.71
64947;BMP280;51469;52.150;4.682;2023-04-24T12:22:51;101027.66;;;16.89
64947;BMP280;51469;52.150;4.682;2023-04-24T12:25:20;101019.25;;;16.66
64947;BMP280;51469;52.150;4.682;2023-04-24T12:27:46;101024.53;;;16.83
64947;BMP280;51469;52.150;4.682;2023-04-24T12:30:16;101031.06;;;17.00
64947;BMP280;51469;52.150;4.682;2023-04-24T12:32:47;101027.31;;;17.13
64947;BMP280;51469;52.150;4.682;2023-04-24T12:35:13;101028.56;;;17.35
64947;BMP280;51469;52.150;4.682;2023-04-24T12:37:42;101030.34;;;17.48
64947;BMP280;51469;52.150;4.682;2023-04-24T12:40:12;101023.66;;;17.92
64947;BMP280;51469;52.150;4.682;2023-04-24T12:42:49;101029.94;;;17.96
64947;BMP280;51469;52.150;4.682;2023-04-24T12:45:15;101033.97;;;17.91
64947;BMP280;51469;52.150;4.682;2023-04-24T12:47:42;101031.53;;;17.74
64947;BMP280;51469;52.150;4.682;2023-04-24T12:50:09;101048.00;;;17.58
64947;BMP280;51469;52.150;4.682;2023-04-24T12:52:35;101047.03;;;17.45
64947;BMP280;51469;52.150;4.682;2023-04-24T12:55:02;101043.44;;;17.48
64947;BMP280;51469;52.150;4.682;2023-04-24T12:57:29;101048.84;;;17.28
64947;BMP280;51469;52.150;4.682;2023-04-24T12:59:56;101045.19;;;17.35
64947;BMP280;51469;52.150;4.682;2023-04-24T13:02:23;101044.09;;;17.29
64947;BMP280;51469;52.150;4.682;2023-04-24T13:04:49;101053.38;;;17.46
64947;BMP280;51469;52.150;4.682;2023-04-24T13:07:15;101049.59;;;17.59
64947;BMP280;51469;52.150;4.682;2023-04-24T13:09:42;101051.66;;;17.78
64947;BMP280;51469;52.150;4.682;2023-04-24T13:12:09;101052.13;;;17.50
64947;BMP280;51469;52.150;4.682;2023-04-24T13:14:35;101058.91;;;17.72
64947;BMP280;51469;52.150;4.682;2023-04-24T13:17:01;101058.00;;;17.78
64947;BMP280;51469;52.150;4.682;2023-04-24T13:19:27;101069.25;;;17.68
64947;BMP280;51469;52.150;4.682;2023-04-24T13:21:54;101055.16;;;18.05
64947;BMP280;51469;52.150;4.682;2023-04-24T13:24:21;101058.66;;;17.86
64947;BMP280;51469;52.150;4.682;2023-04-24T13:26:52;101068.91;;;18.12
64947;BMP280;51469;52.150;4.682;2023-04-24T13:29:18;101062.53;;;17.92
64947;BMP280;51469;52.150;4.682;2023-04-24T13:31:43;101065.53;;;18.01
64947;BMP280;51469;52.150;4.682;2023-04-24T13:34:09;101072.69;;;18.02
64947;BMP280;51469;52.150;4.682;2023-04-24T13:36:35;101071.78;;;18.28
64947;BMP280;51469;52.150;4.682;2023-04-24T13:39:00;101076.56;;;18.04
64947;BMP280;51469;52.150;4.682;2023-04-24T13:41:26;101088.69;;;17.91
64947;BMP280;51469;52.150;4.682;2023-04-24T13:43:51;101081.34;;;18.04
64947;BMP280;51469;52.150;4.682;2023-04-24T13:46:17;101075.81;;;18.04
64947;BMP280;51469;52.150;4.682;2023-04-24T13:48:42;101080.47;;;17.61
64947;BMP280;51469;52.150;4.682;2023-04-24T13:51:07;101077.91;;;17.47
64947;BMP280;51469;52.150;4.682;2023-04-24T13:53:33;101084.59;;;17.23
64947;BMP280;51469;52.150;4.682;2023-04-24T13:56:01;101082.38;;;17.41
64947;BMP280;51469;52.150;4.682;2023-04-24T13:58:27;101087.94;;;17.41
64947;BMP280;51469;52.150;4.682;2023-04-24T14:00:52;101087.50;;;17.13
64947;BMP280;51469;52.150;4.682;2023-04-24T14:03:18;101086.25;;;16.87
64947;BMP280;51469;52.150;4.682;2023-04-24T14:05:43;101094.19;;;16.85
64947;BMP280;51469;52.150;4.682;2023-04-24T14:08:08;101089.59;;;17.05
64947;BMP280;51469;52.150;4.682;2023-04-24T14:10:34;101088.22;;;17.20